Kota Kinabalu International Airport
WBKK : now visible

Airfield :











YOU CAN JOIN US ON...

 
LOGIN :

Register | Disclaimer

   EN    FR    IT 

 









Legend :    VFR   Marginal VFR   IFR   Intensive IFR   Very Intensive IFR
Visi :
Ceiling :
>= 8 km
>= 3000ft
5 to 8 km
1000 to 3000 ft
1500m to 5 km
500 to 1000 ft
800 to 1500m
200 to 500 ft
< 800m
< 200 ft
Symbols :   Thunderstorms  Fog  Heavy snow  Heavy precipitations  Wind > 20 kt






- Airport Elevation : 10 ft
- IATA code : BKI


WBKK - Kota Kinabalu International

CURRENT METAR :
  • 121330Z 20003KT 9999 FEW014 SCT140 BKN270 24/24 Q1011 NOSIG

EXPIRED METARs :
  • 121300Z 00000KT 9999 FEW014 SCT140 BKN270 24/24 Q1011 NOSIG
  • 121230Z 17004KT 9999 FEW014 SCT140 BKN270 24/23 Q1011 NOSIG
  • 121200Z 20005KT 9999 FEW014 SCT140 BKN270 24/23 Q1011 NOSIG
  • 121130Z 16003KT 130V200 9999 FEW014 SCT040 BKN270 24/23 Q1010 NOSIG
  • 121100Z VRB03KT 9999 FEW014 SCT040 BKN270 24/23 Q1010 NOSIG

TAF TAF WBKK
Valid from the 12 at 12:00 until the 13 at 12:00 UTC


121100Z 1212/1312 11005KT 9999 FEW014
BECMG 1300/1302 25005KT



MET'MAP, your aeronautical weather chart ! - Copyright ORBIFLY December 2007 - Disclaimer

ORBIFLY MET'MAP TEAM :

Programming & Development : Alexandra Zaïnal
Concept & original design : Baudouin d'Aumeries
Assistance for programming : Marc-Olivier Méhu
Technical & hardware support : Manuel Goepfert

Contact : metmap@orbifly.com




SOURCES & CREDITS :

   NOAA       Earth
Advisory